sensor_id;sensor_type;location;lat;lon;timestamp;pressure;altitude;pressure_sealevel;temperature;humidity
18652;BME280;9455;54.302;10.124;2023-04-28T00:01:58;59638.59;;;-140.37;100.00
18652;BME280;9455;54.302;10.124;2023-04-28T00:04:25;59638.59;;;-140.37;100.00
18652;BME280;9455;54.302;10.124;2023-04-28T00:06:52;59638.59;;;-140.37;100.00
18652;BME280;9455;54.302;10.124;2023-04-28T00:09:18;59638.59;;;-140.37;100.00
18652;BME280;9455;54.302;10.124;2023-04-28T00:11:46;59638.59;;;-140.37;100.00
18652;BME280;9455;54.302;10.124;2023-04-28T00:14:13;59638.59;;;-140.37;100.00
18652;BME280;9455;54.302;10.124;2023-04-28T00:16:39;59638.59;;;-140.37;100.00
18652;BME280;9455;54.302;10.124;2023-04-28T00:19:06;59638.59;;;3.11;100.00
18652;BME280;9455;54.302;10.124;2023-04-28T00:21:32;59638.59;;;-140.37;100.00
18652;BME280;9455;54.302;10.124;2023-04-28T00:23:59;59638.59;;;-140.37;100.00
18652;BME280;9455;54.302;10.124;2023-04-28T00:26:26;59638.59;;;-140.37;100.00
18652;BME280;9455;54.302;10.124;2023-04-28T00:28:53;59638.59;;;-140.37;100.00
18652;BME280;9455;54.302;10.124;2023-04-28T00:31:20;59638.59;;;-140.37;100.00
18652;BME280;9455;54.302;10.124;2023-04-28T00:33:47;59638.59;;;-140.37;100.00
18652;BME280;9455;54.302;10.124;2023-04-28T00:36:13;59638.59;;;-140.37;100.00
18652;BME280;9455;54.302;10.124;2023-04-28T00:38:40;59638.59;;;-140.37;100.00
18652;BME280;9455;54.302;10.124;2023-04-28T00:41:08;59638.59;;;-140.37;100.00
18652;BME280;9455;54.302;10.124;2023-04-28T00:43:43;59638.59;;;-140.37;100.00
18652;BME280;9455;54.302;10.124;2023-04-28T00:46:12;59638.59;;;-140.37;100.00
18652;BME280;9455;54.302;10.124;2023-04-28T00:48:43;59638.59;;;-140.37;100.00
18652;BME280;9455;54.302;10.124;2023-04-28T00:51:10;59638.59;;;-140.37;100.00
18652;BME280;9455;54.302;10.124;2023-04-28T00:53:36;59638.59;;;-140.37;100.00
18652;BME280;9455;54.302;10.124;2023-04-28T00:56:03;59638.59;;;-140.37;100.00
18652;BME280;9455;54.302;10.124;2023-04-28T00:58:31;59638.59;;;-140.37;100.00
18652;BME280;9455;54.302;10.124;2023-04-28T01:01:03;59638.59;;;-140.37;100.00
18652;BME280;9455;54.302;10.124;2023-04-28T01:03:32;59638.59;;;-140.37;100.00
18652;BME280;9455;54.302;10.124;2023-04-28T01:06:00;59638.59;;;-140.37;100.00
18652;BME280;9455;54.302;10.124;2023-04-28T01:08:27;59638.59;;;-140.37;100.00
18652;BME280;9455;54.302;10.124;2023-04-28T01:10:55;59638.59;;;-140.37;100.00
18652;BME280;9455;54.302;10.124;2023-04-28T01:13:21;59638.59;;;-140.37;100.00
18652;BME280;9455;54.302;10.124;2023-04-28T01:15:48;59638.59;;;-140.37;100.00
18652;BME280;9455;54.302;10.124;2023-04-28T01:18:15;59638.59;;;-140.37;100.00
18652;BME280;9455;54.302;10.124;2023-04-28T01:20:43;59638.59;;;-140.37;100.00
18652;BME280;9455;54.302;10.124;2023-04-28T01:23:11;59638.59;;;-140.37;100.00
18652;BME280;9455;54.302;10.124;2023-04-28T01:25:39;59638.59;;;-140.37;100.00
18652;BME280;9455;54.302;10.124;2023-04-28T01:28:06;59638.59;;;-140.37;100.00
18652;BME280;9455;54.302;10.124;2023-04-28T01:30:33;59638.59;;;-140.37;100.00
18652;BME280;9455;54.302;10.124;2023-04-28T01:33:00;59638.59;;;-140.37;100.00
18652;BME280;9455;54.302;10.124;2023-04-28T01:35:27;59638.59;;;-140.37;100.00
18652;BME280;9455;54.302;10.124;2023-04-28T01:37:53;59638.59;;;2.48;100.00
18652;BME280;9455;54.302;10.124;2023-04-28T01:40:20;59638.59;;;-140.37;100.00
18652;BME280;9455;54.302;10.124;2023-04-28T01:42:48;59638.59;;;-140.37;100.00
18652;BME280;9455;54.302;10.124;2023-04-28T01:45:15;59638.59;;;-140.37;100.00
18652;BME280;9455;54.302;10.124;2023-04-28T01:47:42;59638.59;;;-140.37;100.00
18652;BME280;9455;54.302;10.124;2023-04-28T01:50:09;59638.59;;;-140.37;100.00
18652;BME280;9455;54.302;10.124;2023-04-28T01:52:35;59638.59;;;-140.37;100.00
18652;BME280;9455;54.302;10.124;2023-04-28T01:55:02;59638.59;;;-140.37;100.00
18652;BME280;9455;54.302;10.124;2023-04-28T01:57:29;59638.59;;;-140.37;100.00
18652;BME280;9455;54.302;10.124;2023-04-28T01:59:57;59638.59;;;-140.37;100.00
18652;BME280;9455;54.302;10.124;2023-04-28T02:02:24;59638.59;;;-140.37;100.00
18652;BME280;9455;54.302;10.124;2023-04-28T02:04:51;59638.59;;;-140.37;100.00
18652;BME280;9455;54.302;10.124;2023-04-28T02:07:18;59638.59;;;-140.37;100.00
18652;BME280;9455;54.302;10.124;2023-04-28T02:09:44;59638.59;;;-140.37;100.00
18652;BME280;9455;54.302;10.124;2023-04-28T02:12:11;59638.59;;;-140.37;100.00
18652;BME280;9455;54.302;10.124;2023-04-28T02:14:37;59638.59;;;2.22;100.00
18652;BME280;9455;54.302;10.124;2023-04-28T02:17:05;59638.59;;;-140.37;100.00
18652;BME280;9455;54.302;10.124;2023-04-28T02:19:32;59638.59;;;-140.37;100.00
18652;BME280;9455;54.302;10.124;2023-04-28T02:21:59;59638.59;;;-140.37;100.00
18652;BME280;9455;54.302;10.124;2023-04-28T02:24:25;59638.59;;;2.33;100.00
18652;BME280;9455;54.302;10.124;2023-04-28T02:26:52;59638.59;;;-140.37;100.00
18652;BME280;9455;54.302;10.124;2023-04-28T02:29:18;59638.59;;;-140.37;100.00
18652;BME280;9455;54.302;10.124;2023-04-28T02:31:45;59638.59;;;-140.37;100.00
18652;BME280;9455;54.302;10.124;2023-04-28T02:34:14;59638.59;;;-140.37;100.00
18652;BME280;9455;54.302;10.124;2023-04-28T02:36:40;59638.59;;;-140.37;100.00
18652;BME280;9455;54.302;10.124;2023-04-28T02:39:07;59638.59;;;-140.37;100.00
18652;BME280;9455;54.302;10.124;2023-04-28T02:41:34;59638.59;;;2.39;100.00
18652;BME280;9455;54.302;10.124;2023-04-28T02:44:00;59638.59;;;-140.37;100.00
18652;BME280;9455;54.302;10.124;2023-04-28T02:46:27;76482.00;;;2.41;100.00
18652;BME280;9455;54.302;10.124;2023-04-28T02:48:54;59638.59;;;-140.37;100.00
18652;BME280;9455;54.302;10.124;2023-04-28T02:51:22;59638.59;;;-140.37;100.00
18652;BME280;9455;54.302;10.124;2023-04-28T02:53:48;59638.59;;;-140.37;100.00
18652;BME280;9455;54.302;10.124;2023-04-28T02:56:15;59638.59;;;-140.37;100.00
18652;BME280;9455;54.302;10.124;2023-04-28T02:58:42;59638.59;;;-140.37;100.00
18652;BME280;9455;54.302;10.124;2023-04-28T03:01:08;59638.59;;;-140.37;100.00
18652;BME280;9455;54.302;10.124;2023-04-28T03:03:35;59638.59;;;-140.37;100.00
18652;BME280;9455;54.302;10.124;2023-04-28T03:06:01;59638.59;;;2.46;100.00
18652;BME280;9455;54.302;10.124;2023-04-28T03:08:29;59638.59;;;-140.37;100.00
18652;BME280;9455;54.302;10.124;2023-04-28T03:10:56;59638.59;;;2.46;100.00
18652;BME280;9455;54.302;10.124;2023-04-28T03:13:23;59638.59;;;-140.37;100.00
18652;BME280;9455;54.302;10.124;2023-04-28T03:15:49;59638.59;;;2.46;100.00
18652;BME280;9455;54.302;10.124;2023-04-28T03:18:16;59638.59;;;-140.37;100.00
18652;BME280;9455;54.302;10.124;2023-04-28T03:20:43;59638.59;;;2.46;100.00
18652;BME280;9455;54.302;10.124;2023-04-28T03:23:09;59638.59;;;-140.37;100.00
18652;BME280;9455;54.302;10.124;2023-04-28T03:25:37;59638.59;;;-140.37;100.00
18652;BME280;9455;54.302;10.124;2023-04-28T03:28:04;59638.59;;;-140.37;100.00
18652;BME280;9455;54.302;10.124;2023-04-28T03:30:31;59638.59;;;-140.37;100.00
18652;BME280;9455;54.302;10.124;2023-04-28T03:32:57;59638.59;;;-140.37;100.00
18652;BME280;9455;54.302;10.124;2023-04-28T03:35:24;59638.59;;;-140.37;100.00
18652;BME280;9455;54.302;10.124;2023-04-28T03:37:51;59638.59;;;-140.37;100.00
18652;BME280;9455;54.302;10.124;2023-04-28T03:40:17;59638.59;;;-140.37;100.00
18652;BME280;9455;54.302;10.124;2023-04-28T03:42:45;59638.59;;;-140.37;100.00
18652;BME280;9455;54.302;10.124;2023-04-28T03:45:12;59638.59;;;-140.37;100.00
18652;BME280;9455;54.302;10.124;2023-04-28T03:47:38;59638.59;;;-140.37;100.00
18652;BME280;9455;54.302;10.124;2023-04-28T03:50:06;59638.59;;;-140.37;100.00
18652;BME280;9455;54.302;10.124;2023-04-28T03:52:33;59638.59;;;-140.37;100.00
18652;BME280;9455;54.302;10.124;2023-04-28T03:54:59;59638.59;;;-140.37;100.00
18652;BME280;9455;54.302;10.124;2023-04-28T03:57:26;59638.59;;;-140.37;100.00
18652;BME280;9455;54.302;10.124;2023-04-28T03:59:54;59638.59;;;-140.37;100.00
18652;BME280;9455;54.302;10.124;2023-04-28T04:02:20;59638.59;;;-140.37;100.00
18652;BME280;9455;54.302;10.124;2023-04-28T04:04:47;59638.59;;;-140.37;100.00
18652;BME280;9455;54.302;10.124;2023-04-28T04:07:14;59638.59;;;-140.37;100.00
18652;BME280;9455;54.302;10.124;2023-04-28T04:09:40;59638.59;;;-140.37;100.00
18652;BME280;9455;54.302;10.124;2023-04-28T04:12:07;59638.59;;;-140.37;100.00
18652;BME280;9455;54.302;10.124;2023-04-28T04:14:33;59638.59;;;-140.37;100.00
18652;BME280;9455;54.302;10.124;2023-04-28T04:17:01;59638.59;;;-140.37;100.00
18652;BME280;9455;54.302;10.124;2023-04-28T04:19:28;59638.59;;;-140.37;100.00
18652;BME280;9455;54.302;10.124;2023-04-28T04:21:55;59638.59;;;-140.37;100.00
18652;BME280;9455;54.302;10.124;2023-04-28T04:24:22;59638.59;;;-140.37;100.00
18652;BME280;9455;54.302;10.124;2023-04-28T04:26:48;59638.59;;;-140.37;100.00
18652;BME280;9455;54.302;10.124;2023-04-28T04:29:15;59638.59;;;2.17;100.00
18652;BME280;9455;54.302;10.124;2023-04-28T04:31:41;59638.59;;;-140.37;100.00
18652;BME280;9455;54.302;10.124;2023-04-28T04:34:10;59638.59;;;-140.37;100.00
18652;BME280;9455;54.302;10.124;2023-04-28T04:36:37;59638.59;;;-140.37;100.00
18652;BME280;9455;54.302;10.124;2023-04-28T04:39:04;59638.59;;;-140.37;100.00
18652;BME280;9455;54.302;10.124;2023-04-28T04:41:30;59638.59;;;-140.37;100.00
18652;BME280;9455;54.302;10.124;2023-04-28T04:43:57;59638.59;;;-140.37;100.00
18652;BME280;9455;54.302;10.124;2023-04-28T04:46:24;76393.81;;;2.44;100.00
18652;BME280;9455;54.302;10.124;2023-04-28T04:48:51;59638.59;;;-140.37;100.00
18652;BME280;9455;54.302;10.124;2023-04-28T04:51:19;59638.59;;;-140.37;100.00
18652;BME280;9455;54.302;10.124;2023-04-28T04:53:46;59638.59;;;-140.37;100.00
18652;BME280;9455;54.302;10.124;2023-04-28T04:56:12;59638.59;;;2.44;100.00
18652;BME280;9455;54.302;10.124;2023-04-28T04:58:41;59638.59;;;-140.37;100.00
18652;BME280;9455;54.302;10.124;2023-04-28T05:01:08;59638.59;;;2.44;100.00
18652;BME280;9455;54.302;10.124;2023-04-28T05:03:35;59638.59;;;-140.37;100.00
18652;BME280;9455;54.302;10.124;2023-04-28T05:06:02;59638.59;;;-140.37;100.00
18652;BME280;9455;54.302;10.124;2023-04-28T05:08:30;59638.59;;;2.73;100.00
18652;BME280;9455;54.302;10.124;2023-04-28T05:10:56;76482.00;;;2.95;100.00
18652;BME280;9455;54.302;10.124;2023-04-28T05:13:23;59638.59;;;2.89;100.00
18652;BME280;9455;54.302;10.124;2023-04-28T05:15:50;59638.59;;;3.12;100.00
18652;BME280;9455;54.302;10.124;2023-04-28T05:18:16;59638.59;;;-140.37;100.00
18652;BME280;9455;54.302;10.124;2023-04-28T05:20:43;59638.59;;;-140.37;100.00
18652;BME280;9455;54.302;10.124;2023-04-28T05:23:10;59638.59;;;-140.37;100.00
18652;BME280;9455;54.302;10.124;2023-04-28T05:25:38;59638.59;;;-140.37;100.00
18652;BME280;9455;54.302;10.124;2023-04-28T05:28:04;59638.59;;;-140.37;100.00
18652;BME280;9455;54.302;10.124;2023-04-28T05:30:33;59638.59;;;-140.37;100.00
18652;BME280;9455;54.302;10.124;2023-04-28T05:32:59;59638.59;;;-140.37;100.00
18652;BME280;9455;54.302;10.124;2023-04-28T05:35:26;59638.59;;;-140.37;100.00
18652;BME280;9455;54.302;10.124;2023-04-28T05:37:53;59638.59;;;-140.37;100.00
18652;BME280;9455;54.302;10.124;2023-04-28T05:40:20;59638.59;;;-140.37;100.00
18652;BME280;9455;54.302;10.124;2023-04-28T05:42:48;59638.59;;;3.72;100.00
18652;BME280;9455;54.302;10.124;2023-04-28T05:45:15;59638.59;;;-140.37;100.00
18652;BME280;9455;54.302;10.124;2023-04-28T05:47:41;59638.59;;;4.83;100.00
18652;BME280;9455;54.302;10.124;2023-04-28T05:50:09;59638.59;;;-140.37;100.00
18652;BME280;9455;54.302;10.124;2023-04-28T05:52:35;59638.59;;;-140.37;100.00
18652;BME280;9455;54.302;10.124;2023-04-28T05:55:02;59638.59;;;-140.37;100.00
18652;BME280;9455;54.302;10.124;2023-04-28T05:57:29;59638.59;;;-140.37;100.00
18652;BME280;9455;54.302;10.124;2023-04-28T05:59:58;59638.59;;;-140.37;100.00
18652;BME280;9455;54.302;10.124;2023-04-28T06:02:24;59638.59;;;-140.37;100.00
18652;BME280;9455;54.302;10.124;2023-04-28T06:04:51;59638.59;;;-140.37;100.00
18652;BME280;9455;54.302;10.124;2023-04-28T06:07:17;59638.59;;;-140.37;100.00
18652;BME280;9455;54.302;10.124;2023-04-28T06:09:44;59638.59;;;-140.37;100.00
18652;BME280;9455;54.302;10.124;2023-04-28T06:12:10;59638.59;;;6.97;100.00
18652;BME280;9455;54.302;10.124;2023-04-28T06:14:37;59638.59;;;-140.37;100.00
18652;BME280;9455;54.302;10.124;2023-04-28T06:17:05;59638.59;;;-140.37;100.00
18652;BME280;9455;54.302;10.124;2023-04-28T06:19:33;59638.59;;;6.93;100.00
18652;BME280;9455;54.302;10.124;2023-04-28T06:22:00;59638.59;;;-140.37;100.00
18652;BME280;9455;54.302;10.124;2023-04-28T06:24:26;59638.59;;;-140.37;100.00
18652;BME280;9455;54.302;10.124;2023-04-28T06:26:54;59638.59;;;-140.37;100.00
18652;BME280;9455;54.302;10.124;2023-04-28T06:29:20;59638.59;;;-140.37;100.00
18652;BME280;9455;54.302;10.124;2023-04-28T06:31:48;59638.59;;;-140.37;100.00
18652;BME280;9455;54.302;10.124;2023-04-28T06:34:17;59638.59;;;-140.37;100.00
18652;BME280;9455;54.302;10.124;2023-04-28T06:36:44;59638.59;;;13.38;100.00
18652;BME280;9455;54.302;10.124;2023-04-28T06:39:11;59638.59;;;-140.37;100.00
18652;BME280;9455;54.302;10.124;2023-04-28T06:41:38;59638.59;;;-140.37;100.00
18652;BME280;9455;54.302;10.124;2023-04-28T06:44:05;59638.59;;;-140.37;100.00
18652;BME280;9455;54.302;10.124;2023-04-28T06:46:31;59638.59;;;-140.37;100.00
18652;BME280;9455;54.302;10.124;2023-04-28T06:48:58;59638.59;;;-140.37;100.00
18652;BME280;9455;54.302;10.124;2023-04-28T06:51:26;59638.59;;;-140.37;100.00
18652;BME280;9455;54.302;10.124;2023-04-28T06:53:53;59638.59;;;-140.37;100.00
18652;BME280;9455;54.302;10.124;2023-04-28T06:56:20;59638.59;;;-140.37;100.00
18652;BME280;9455;54.302;10.124;2023-04-28T06:58:46;59638.59;;;-140.37;100.00
18652;BME280;9455;54.302;10.124;2023-04-28T07:01:13;59638.59;;;-140.37;100.00
18652;BME280;9455;54.302;10.124;2023-04-28T07:03:39;59638.59;;;-140.37;100.00
18652;BME280;9455;54.302;10.124;2023-04-28T07:06:06;59638.59;;;-140.37;100.00
18652;BME280;9455;54.302;10.124;2023-04-28T07:08:34;-23393.59;;;7.52;100.00
18652;BME280;9455;54.302;10.124;2023-04-28T07:11:01;59638.59;;;-140.37;100.00
18652;BME280;9455;54.302;10.124;2023-04-28T07:13:28;59638.59;;;-140.37;100.00
18652;BME280;9455;54.302;10.124;2023-04-28T07:15:55;59638.59;;;-140.37;100.00
18652;BME280;9455;54.302;10.124;2023-04-28T07:18:22;59638.59;;;-140.37;100.00
18652;BME280;9455;54.302;10.124;2023-04-28T07:20:48;59638.59;;;-140.37;100.00
18652;BME280;9455;54.302;10.124;2023-04-28T07:23:15;59638.59;;;-140.37;100.00
18652;BME280;9455;54.302;10.124;2023-04-28T07:25:43;59638.59;;;-140.37;100.00
18652;BME280;9455;54.302;10.124;2023-04-28T07:28:10;59638.59;;;-140.37;100.00
18652;BME280;9455;54.302;10.124;2023-04-28T07:30:37;59638.59;;;-140.37;100.00
18652;BME280;9455;54.302;10.124;2023-04-28T07:33:03;59638.59;;;-140.37;100.00
18652;BME280;9455;54.302;10.124;2023-04-28T07:35:30;59638.59;;;-140.37;100.00
18652;BME280;9455;54.302;10.124;2023-04-28T07:37:57;59638.59;;;-140.37;100.00
18652;BME280;9455;54.302;10.124;2023-04-28T07:40:24;59638.59;;;-140.37;100.00
18652;BME280;9455;54.302;10.124;2023-04-28T07:42:52;59638.59;;;-140.37;100.00
18652;BME280;9455;54.302;10.124;2023-04-28T07:45:19;59638.59;;;-140.37;100.00
18652;BME280;9455;54.302;10.124;2023-04-28T07:47:45;59638.59;;;-140.37;100.00
18652;BME280;9455;54.302;10.124;2023-04-28T07:50:12;59638.59;;;-140.37;100.00
18652;BME280;9455;54.302;10.124;2023-04-28T07:52:39;59638.59;;;-140.37;100.00
18652;BME280;9455;54.302;10.124;2023-04-28T07:55:06;59638.59;;;-140.37;100.00
18652;BME280;9455;54.302;10.124;2023-04-28T07:57:32;59638.59;;;-140.37;100.00
18652;BME280;9455;54.302;10.124;2023-04-28T08:00:00;59638.59;;;-140.37;100.00
18652;BME280;9455;54.302;10.124;2023-04-28T08:02:27;59638.59;;;-140.37;100.00
18652;BME280;9455;54.302;10.124;2023-04-28T08:04:54;59638.59;;;-140.37;100.00
18652;BME280;9455;54.302;10.124;2023-04-28T08:07:20;59638.59;;;-140.37;100.00
18652;BME280;9455;54.302;10.124;2023-04-28T08:09:48;59638.59;;;-140.37;100.00
18652;BME280;9455;54.302;10.124;2023-04-28T08:12:15;59638.59;;;-140.37;100.00
18652;BME280;9455;54.302;10.124;2023-04-28T08:14:42;59638.59;;;-140.37;100.00
18652;BME280;9455;54.302;10.124;2023-04-28T08:17:10;59638.59;;;-140.37;100.00
18652;BME280;9455;54.302;10.124;2023-04-28T08:19:37;59638.59;;;-140.37;100.00
18652;BME280;9455;54.302;10.124;2023-04-28T08:22:04;59638.59;;;-140.37;100.00
18652;BME280;9455;54.302;10.124;2023-04-28T08:24:31;59638.59;;;-140.37;100.00
18652;BME280;9455;54.302;10.124;2023-04-28T08:27:00;59638.59;;;-140.37;100.00
18652;BME280;9455;54.302;10.124;2023-04-28T08:29:27;59638.59;;;7.52;100.00
18652;BME280;9455;54.302;10.124;2023-04-28T08:31:54;59638.59;;;-140.37;100.00
18652;BME280;9455;54.302;10.124;2023-04-28T08:34:22;59638.59;;;-140.37;100.00
18652;BME280;9455;54.302;10.124;2023-04-28T08:36:50;59638.59;;;-140.37;100.00
18652;BME280;9455;54.302;10.124;2023-04-28T08:39:17;59638.59;;;-140.37;100.00
18652;BME280;9455;54.302;10.124;2023-04-28T08:41:44;59638.59;;;7.52;100.00
18652;BME280;9455;54.302;10.124;2023-04-28T08:44:11;59638.59;;;7.52;100.00
18652;BME280;9455;54.302;10.124;2023-04-28T08:46:39;59638.59;;;-140.37;100.00
18652;BME280;9455;54.302;10.124;2023-04-28T08:49:12;59638.59;;;-140.37;100.00
18652;BME280;9455;54.302;10.124;2023-04-28T08:51:44;59638.59;;;7.52;100.00
18652;BME280;9455;54.302;10.124;2023-04-28T08:54:13;59638.59;;;-140.37;100.00
18652;BME280;9455;54.302;10.124;2023-04-28T08:56:40;59638.59;;;-140.37;100.00
18652;BME280;9455;54.302;10.124;2023-04-28T08:59:10;59638.59;;;7.52;100.00
18652;BME280;9455;54.302;10.124;2023-04-28T09:01:37;59638.59;;;7.52;100.00
18652;BME280;9455;54.302;10.124;2023-04-28T09:04:04;59638.59;;;7.52;100.00
18652;BME280;9455;54.302;10.124;2023-04-28T09:06:32;59638.59;;;7.52;100.00
18652;BME280;9455;54.302;10.124;2023-04-28T09:09:22;59638.59;;;-140.37;100.00
18652;BME280;9455;54.302;10.124;2023-04-28T09:11:51;59638.59;;;-140.37;100.00
18652;BME280;9455;54.302;10.124;2023-04-28T09:14:18;59638.59;;;-140.37;100.00
18652;BME280;9455;54.302;10.124;2023-04-28T09:16:44;59638.59;;;-140.37;100.00
18652;BME280;9455;54.302;10.124;2023-04-28T09:19:11;59638.59;;;7.52;100.00
18652;BME280;9455;54.302;10.124;2023-04-28T09:21:45;59638.59;;;-140.37;100.00
18652;BME280;9455;54.302;10.124;2023-04-28T09:24:25;59638.59;;;-140.37;100.00
18652;BME280;9455;54.302;10.124;2023-04-28T09:26:51;77060.81;;;7.52;100.00
18652;BME280;9455;54.302;10.124;2023-04-28T09:29:18;59638.59;;;11.65;100.00
18652;BME280;9455;54.302;10.124;2023-04-28T09:31:45;77597.84;;;11.73;100.00
18652;BME280;9455;54.302;10.124;2023-04-28T09:34:11;59638.59;;;11.88;100.00
18652;BME280;9455;54.302;10.124;2023-04-28T09:36:38;59638.59;;;11.94;100.00
18652;BME280;9455;54.302;10.124;2023-04-28T09:39:05;59638.59;;;11.96;100.00
18652;BME280;9455;54.302;10.124;2023-04-28T09:41:37;59638.59;;;12.11;100.00
18652;BME280;9455;54.302;10.124;2023-04-28T09:44:11;59638.59;;;12.15;100.00
18652;BME280;9455;54.302;10.124;2023-04-28T09:46:39;59638.59;;;12.26;100.00
18652;BME280;9455;54.302;10.124;2023-04-28T09:49:05;59638.59;;;12.09;100.00
18652;BME280;9455;54.302;10.124;2023-04-28T09:51:33;59638.59;;;12.24;100.00
18652;BME280;9455;54.302;10.124;2023-04-28T09:54:00;59638.59;;;12.41;100.00
18652;BME280;9455;54.302;10.124;2023-04-28T09:56:29;59638.59;;;12.29;100.00
18652;BME280;9455;54.302;10.124;2023-04-28T09:58:58;59638.59;;;12.22;100.00
18652;BME280;9455;54.302;10.124;2023-04-28T10:01:26;59638.59;;;12.37;100.00
18652;BME280;9455;54.302;10.124;2023-04-28T10:03:53;59638.59;;;12.51;100.00
18652;BME280;9455;54.302;10.124;2023-04-28T10:06:22;77710.25;;;12.60;100.00
18652;BME280;9455;54.302;10.124;2023-04-28T10:08:51;59638.59;;;12.69;100.00
18652;BME280;9455;54.302;10.124;2023-04-28T10:11:17;59638.59;;;12.87;100.00
18652;BME280;9455;54.302;10.124;2023-04-28T10:13:47;59638.59;;;12.78;100.00
18652;BME280;9455;54.302;10.124;2023-04-28T10:16:16;59638.59;;;12.80;100.00
18652;BME280;9455;54.302;10.124;2023-04-28T10:18:44;59638.59;;;12.91;100.00
18652;BME280;9455;54.302;10.124;2023-04-28T10:21:13;59638.59;;;12.91;100.00
18652;BME280;9455;54.302;10.124;2023-04-28T10:23:53;59638.59;;;13.06;100.00
18652;BME280;9455;54.302;10.124;2023-04-28T10:26:35;59638.59;;;13.01;100.00
18652;BME280;9455;54.302;10.124;2023-04-28T10:29:22;59638.59;;;13.32;100.00
18652;BME280;9455;54.302;10.124;2023-04-28T10:32:16;59638.59;;;13.33;100.00
18652;BME280;9455;54.302;10.124;2023-04-28T10:34:43;59638.59;;;13.19;100.00
18652;BME280;9455;54.302;10.124;2023-04-28T10:37:10;59638.59;;;13.15;100.00
18652;BME280;9455;54.302;10.124;2023-04-28T10:39:39;59638.59;;;13.23;100.00
18652;BME280;9455;54.302;10.124;2023-04-28T10:48:21;59638.59;;;13.35;100.00
18652;BME280;9455;54.302;10.124;2023-04-28T10:51:20;59638.59;;;13.46;100.00
18652;BME280;9455;54.302;10.124;2023-04-28T10:54:07;59638.59;;;13.50;100.00
18652;BME280;9455;54.302;10.124;2023-04-28T10:56:33;59638.59;;;13.52;100.00
18652;BME280;9455;54.302;10.124;2023-04-28T10:59:23;59638.59;;;13.76;100.00
18652;BME280;9455;54.302;10.124;2023-04-28T11:01:50;59638.59;;;13.74;100.00
18652;BME280;9455;54.302;10.124;2023-04-28T11:04:18;59638.59;;;13.70;100.00
18652;BME280;9455;54.302;10.124;2023-04-28T11:06:46;78146.09;;;13.77;100.00
18652;BME280;9455;54.302;10.124;2023-04-28T11:09:45;59638.59;;;14.02;100.00
18652;BME280;9455;54.302;10.124;2023-04-28T11:12:14;59638.59;;;14.66;100.00
18652;BME280;9455;54.302;10.124;2023-04-28T11:14:40;59638.59;;;13.90;100.00
18652;BME280;9455;54.302;10.124;2023-04-28T11:17:08;59638.59;;;13.86;100.00
18652;BME280;9455;54.302;10.124;2023-04-28T11:19:39;59638.59;;;14.14;100.00
18652;BME280;9455;54.302;10.124;2023-04-28T11:22:14;59638.59;;;14.02;100.00
18652;BME280;9455;54.302;10.124;2023-04-28T11:24:54;59638.59;;;13.91;100.00
18652;BME280;9455;54.302;10.124;2023-04-28T11:27:22;59638.59;;;14.24;100.00
18652;BME280;9455;54.302;10.124;2023-04-28T11:29:49;59638.59;;;14.17;100.00
18652;BME280;9455;54.302;10.124;2023-04-28T11:32:15;59638.59;;;14.39;100.00
18652;BME280;9455;54.302;10.124;2023-04-28T11:34:50;59638.59;;;14.37;100.00
18652;BME280;9455;54.302;10.124;2023-04-28T11:37:17;59638.59;;;14.41;100.00
18652;BME280;9455;54.302;10.124;2023-04-28T11:39:45;59638.59;;;14.37;100.00
18652;BME280;9455;54.302;10.124;2023-04-28T11:42:12;59638.59;;;14.37;100.00
18652;BME280;9455;54.302;10.124;2023-04-28T11:44:38;59638.59;;;14.20;100.00
18652;BME280;9455;54.302;10.124;2023-04-28T11:47:06;59638.59;;;14.23;100.00
18652;BME280;9455;54.302;10.124;2023-04-28T11:49:41;59638.59;;;14.51;100.00
18652;BME280;9455;54.302;10.124;2023-04-28T11:52:10;59638.59;;;14.92;100.00
18652;BME280;9455;54.302;10.124;2023-04-28T11:54:37;59638.59;;;15.07;100.00
18652;BME280;9455;54.302;10.124;2023-04-28T11:57:16;78026.78;;;15.03;100.00
18652;BME280;9455;54.302;10.124;2023-04-28T11:59:42;59638.59;;;15.12;100.00
18652;BME280;9455;54.302;10.124;2023-04-28T12:02:10;59638.59;;;15.07;100.00
18652;BME280;9455;54.302;10.124;2023-04-28T12:04:38;59638.59;;;14.84;100.00
18652;BME280;9455;54.302;10.124;2023-04-28T12:07:06;59638.59;;;14.77;100.00
18652;BME280;9455;54.302;10.124;2023-04-28T12:09:37;59638.59;;;14.56;100.00
18652;BME280;9455;54.302;10.124;2023-04-28T12:12:05;77998.69;;;14.82;100.00
18652;BME280;9455;54.302;10.124;2023-04-28T12:17:22;101341.34;;;15.14;100.00
18652;BME280;9455;54.302;10.124;2023-04-28T12:19:49;59638.59;;;15.14;100.00
18652;BME280;9455;54.302;10.124;2023-04-28T12:22:16;59638.59;;;15.14;100.00
18652;BME280;9455;54.302;10.124;2023-04-28T12:24:44;59638.59;;;15.14;100.00
18652;BME280;9455;54.302;10.124;2023-04-28T12:27:15;59638.59;;;15.14;100.00
18652;BME280;9455;54.302;10.124;2023-04-28T12:29:43;78040.50;;;15.14;100.00
18652;BME280;9455;54.302;10.124;2023-04-28T12:32:10;59638.59;;;15.26;100.00
18652;BME280;9455;54.302;10.124;2023-04-28T12:34:38;78088.22;;;15.50;100.00
18652;BME280;9455;54.302;10.124;2023-04-28T12:37:06;59638.59;;;15.76;100.00
18652;BME280;9455;54.302;10.124;2023-04-28T12:39:33;78119.59;;;15.74;100.00
18652;BME280;9455;54.302;10.124;2023-04-28T12:42:02;59638.59;;;-140.37;100.00
18652;BME280;9455;54.302;10.124;2023-04-28T12:44:34;59638.59;;;15.42;100.00
18652;BME280;9455;54.302;10.124;2023-04-28T12:47:03;78092.16;;;15.53;100.00
18652;BME280;9455;54.302;10.124;2023-04-28T12:49:29;59638.59;;;15.33;100.00
18652;BME280;9455;54.302;10.124;2023-04-28T12:51:56;59638.59;;;15.20;100.00